Hlavní strana
METAR-TAF:

METAR-TAF

Letiště :

Aigen im Ennstal, Rakousko

zeměpisná šířka: 47-32N, zeměpisná délka: 014-08E, výška: 638 m

METAR: chybějící

Čas: 03:53 (01:53 UTC)

Předpověď počasí

Zpráva byla vytvořena před 14 hodinami a 38 minutami, v 11:15 UTC
Předpověď platná od 22 v 12 UTC do 22 v 21 UTC
Východoseverovýchodní vítr 10 kt
Viditelnost 10 km a více
Polojasno ve výšce 6000 ft
Oblačno až skoro zataženo ve výšce 20000 ft
Změna
od 22 v 13 UTC do 22 v 15 UTC
Skoro jasno ve výšce 3000 ft
Oblačno až skoro zataženo ve výšce 6000 ft
Oblačno až skoro zataženo ve výšce 13000 ft
Dočasný
od 22 v 17 UTC do 22 v 21 UTC
Skoro jasno ve výšce 2500 ft
Oblačno až skoro zataženo ve výšce 5000 ft
slabý déšť,

TAF: LOXA 221115Z 2212/2221 06010KT 9999 SCT060 BKN200 BECMG 2213/2215 FEW030 BKN060 BKN130 TEMPO 2217/2221 -RA FEW025 BKN050

Stav a předpovědi počasí z více než 4 000 letišť (zprávy METAR a TAF).

Červené a žluté tečky na mapě představují dostupné meteorologické stanice.

Když kurzor umístíte na tečku, zobrazí se název stanice.

Pak kliknutím zobrazíte stav a předpověď počasí.

Chcete-li změnit mapu, kliknutím na zelené tlačítko se znaménkem +mapu přiblížíte, kliknutím na zelené tlačítko se znaménkem – mapu oddálíte a kliknutím na zelené šipky přejdete na sousední mapy.


METAR-TAF: